NWWW

Details ICAO NWWW (NOU)
Name Noumea La Tontouta
Region New Caledonia
Timezone Pacific/Noumea (UTC+11.0)
Plans Departing 136
Arriving 164
Stats Elevation 51 ft / 16 m (AMSL)
Location -22.014529° 166.213022°
Runways 1
Magnetic Variation 12.350° E
Sunrise 2018-06-23 19:35:02 UTC / 2018-06-24 06:35:02 Local
Sunset 2018-06-24 06:22:17 UTC / 2018-06-24 17:22:17 Local
Advertisement - Login to hide

Runways

ID Width Length Bearing (true) Bearing (mag) Surface Threshold Offset Overrun Length
11 148 ft / 45 m 10,666 ft / 3,251 m 121.21° 108.86° Asphalt 0 ft / 0 m 338 ft / 103 m
29 148 ft / 45 m 10,666 ft / 3,251 m 301.19° 288.84° Asphalt 0 ft / 0 m 354 ft / 108 m

Approach Navaids

Runway Type Ident Frequency Range Bearing (true) Bearing (mag) Slope Elevation
11 Localiser LT 109.90 MHz 18 nm / 33 km 120.69° 108.34° - 52 ft / 16 m (AMSL)
11 Glidescope LT 109.90 MHz 10 nm / 19 km 121.20° 108.85° 3.00° 24 ft / 7 m (AMSL)

Map

Weather


0- 5 10 15 20 25 30 35+ Temperature / ° C

Clouds and Precipitation
Forecast for 2018-06-24 06:00 UTC. Updated 5 hours ago

Ground ~20,000 ft ~40,000 ft Winds

METAR

NWWW 240830Z AUTO 00000KT CAVOK 18/14 Q1019 NOSIG

TAF

TAF AMD NWWW 240736Z 2407/2506 VRB02KT 9999 FEW040 PROB40 TEMPO 2416/2419 4000 MIFG BECMG 2422/2424 16012KT
Warning: Do not use this data for real-world aviation or navigation. No guarantee of current accuracy is given.